createdAt,value
2018-06-19T00:01:30.994Z,80.47
2018-06-19T00:03:59.819Z,80.54
2018-06-19T00:06:28.710Z,80.42
2018-06-19T00:08:57.598Z,80.27
2018-06-19T00:11:26.207Z,79.45
2018-06-19T00:13:54.937Z,79.70
2018-06-19T00:16:23.689Z,79.46
2018-06-19T00:18:56.818Z,79.13
2018-06-19T00:21:35.458Z,78.28
2018-06-19T00:24:04.511Z,79.50
2018-06-19T00:26:33.306Z,79.38
2018-06-19T00:29:02.026Z,79.58
2018-06-19T00:31:30.661Z,79.95
2018-06-19T00:33:59.273Z,80.05
2018-06-19T00:36:27.845Z,80.15
2018-06-19T00:38:56.351Z,79.55
2018-06-19T00:41:24.871Z,79.76
2018-06-19T00:43:53.456Z,79.25
2018-06-19T00:46:24.543Z,79.63
2018-06-19T00:48:53.054Z,80.16
2018-06-19T00:51:21.686Z,79.83
2018-06-19T00:53:50.183Z,80.05
2018-06-19T00:57:01.030Z,79.72
2018-06-19T00:59:29.578Z,79.16
2018-06-19T01:01:59.736Z,78.93
2018-06-19T01:04:28.278Z,79.08
2018-06-19T01:06:56.895Z,79.47
2018-06-19T01:09:25.378Z,78.85
2018-06-19T01:11:54.063Z,78.76
2018-06-19T01:14:22.563Z,78.77
2018-06-19T01:16:51.118Z,78.91
2018-06-19T01:19:19.667Z,78.49
2018-06-19T01:21:48.170Z,78.82
2018-06-19T01:24:17.334Z,78.69
2018-06-19T01:26:45.877Z,78.83
2018-06-19T01:29:14.852Z,78.85
2018-06-19T01:31:43.358Z,78.61
2018-06-19T01:34:11.838Z,77.99
2018-06-19T01:36:40.423Z,77.93
2018-06-19T01:39:10.418Z,78.14
2018-06-19T01:41:38.905Z,78.09
2018-06-19T01:44:07.659Z,77.93
2018-06-19T01:46:36.144Z,77.79
2018-06-19T01:49:04.863Z,78.21
2018-06-19T01:51:33.373Z,78.30
2018-06-19T01:54:01.914Z,78.20
2018-06-19T01:56:30.463Z,77.98
2018-06-19T01:58:58.955Z,78.30
2018-06-19T02:01:27.474Z,78.39
2018-06-19T02:03:56.107Z,78.57
2018-06-19T02:06:24.631Z,78.27
2018-06-19T02:08:53.100Z,78.79
2018-06-19T02:11:21.647Z,78.57
2018-06-19T02:13:50.171Z,77.84
2018-06-19T02:16:18.781Z,78.45
2018-06-19T02:18:47.282Z,78.29
2018-06-19T02:21:15.862Z,78.24
2018-06-19T02:23:44.455Z,78.24
2018-06-19T02:26:12.969Z,78.79
2018-06-19T02:28:41.470Z,78.52
2018-06-19T02:31:10.036Z,79.21
2018-06-19T02:33:38.566Z,78.87
2018-06-19T02:36:07.056Z,78.10
2018-06-19T02:38:35.583Z,78.70
2018-06-19T02:41:04.206Z,78.80
2018-06-19T02:43:32.708Z,79.26
2018-06-19T02:46:01.226Z,78.89
2018-06-19T02:48:29.793Z,79.44
2018-06-19T02:50:59.306Z,79.35
2018-06-19T02:53:27.773Z,79.08
2018-06-19T02:55:56.307Z,78.85
2018-06-19T02:58:24.769Z,79.27
2018-06-19T03:00:53.264Z,79.17
2018-06-19T03:03:21.822Z,78.49
2018-06-19T03:05:50.303Z,78.08
2018-06-19T03:08:18.915Z,78.95
2018-06-19T03:10:47.453Z,78.99
2018-06-19T03:13:15.978Z,79.21
2018-06-19T03:15:44.481Z,79.27
2018-06-19T03:18:12.994Z,79.79
2018-06-19T03:20:41.603Z,79.99
2018-06-19T03:23:10.130Z,79.62
2018-06-19T03:25:38.609Z,79.55
2018-06-19T03:28:07.110Z,79.11
2018-06-19T03:30:35.660Z,79.88
2018-06-19T03:33:04.139Z,79.58
2018-06-19T03:35:32.608Z,79.77
2018-06-19T03:38:01.151Z,79.66
2018-06-19T03:40:29.632Z,80.18
2018-06-19T03:42:58.151Z,80.33
2018-06-19T03:45:26.826Z,80.16
2018-06-19T03:47:55.327Z,80.02
2018-06-19T03:50:24.188Z,79.34
2018-06-19T03:52:52.708Z,80.42
2018-06-19T03:55:21.198Z,80.36
2018-06-19T03:57:49.868Z,80.27
2018-06-19T04:00:18.670Z,80.57
2018-06-19T04:02:47.182Z,80.06
2018-06-19T04:05:15.794Z,80.39
2018-06-19T04:07:44.334Z,81.13
2018-06-19T04:10:13.030Z,80.88
2018-06-19T04:12:41.533Z,81.72
2018-06-19T04:15:10.060Z,81.90
2018-06-19T04:17:39.216Z,81.78
2018-06-19T04:20:07.762Z,81.97
2018-06-19T04:22:36.313Z,82.46
2018-06-19T04:25:04.907Z,81.96
2018-06-19T04:27:33.829Z,81.79
2018-06-19T04:30:02.342Z,81.31
2018-06-19T04:32:30.889Z,81.14
2018-06-19T04:34:59.411Z,81.76
2018-06-19T04:37:27.915Z,81.86
2018-06-19T04:39:57.065Z,81.63
2018-06-19T04:42:26.287Z,81.33
2018-06-19T04:44:55.509Z,81.23
2018-06-19T04:47:24.014Z,81.17
2018-06-19T04:49:52.647Z,80.78
2018-06-19T04:52:21.157Z,80.80
2018-06-19T04:54:49.642Z,80.51
2018-06-19T04:57:18.207Z,80.48
2018-06-19T04:59:46.835Z,79.98
2018-06-19T05:02:15.360Z,80.89
2018-06-19T05:04:43.890Z,80.50
2018-06-19T05:07:12.451Z,80.80
2018-06-19T05:09:41.535Z,79.97
2018-06-19T05:12:10.048Z,80.75
2018-06-19T05:14:38.900Z,80.68
2018-06-19T05:17:07.451Z,80.86
2018-06-19T05:19:36.007Z,80.90
2018-06-19T05:22:04.572Z,80.69
2018-06-19T05:24:33.087Z,81.07
2018-06-19T05:27:01.615Z,80.32
2018-06-19T05:29:30.151Z,81.13
2018-06-19T05:31:58.831Z,80.87
2018-06-19T05:34:27.371Z,80.64
2018-06-19T05:36:59.755Z,81.29
2018-06-19T05:39:28.326Z,80.83
2018-06-19T05:41:57.267Z,81.67
2018-06-19T05:44:25.897Z,81.99
2018-06-19T05:46:54.551Z,83.03
2018-06-19T05:49:23.061Z,83.37
2018-06-19T05:51:52.336Z,83.88
2018-06-19T05:54:20.838Z,84.02
2018-06-19T05:56:49.866Z,85.02
2018-06-19T05:59:18.396Z,85.52
2018-06-19T06:01:46.920Z,86.24
2018-06-19T06:04:16.133Z,86.38
2018-06-19T06:06:44.678Z,86.78
2018-06-19T06:09:13.187Z,86.68
2018-06-19T06:11:41.819Z,86.47
2018-06-19T06:14:12.018Z,87.59
2018-06-19T06:16:41.068Z,87.34
2018-06-19T06:19:09.567Z,86.64
2018-06-19T06:21:38.076Z,87.50
2018-06-19T06:24:06.730Z,87.77
2018-06-19T06:26:35.281Z,86.74
2018-06-19T06:29:04.753Z,86.77
2018-06-19T06:31:33.338Z,86.71
2018-06-19T06:34:01.907Z,86.44
2018-06-19T06:36:30.426Z,86.14
2018-06-19T06:38:59.023Z,85.80
2018-06-19T06:41:27.582Z,86.16
2018-06-19T06:43:56.112Z,85.40
2018-06-19T06:46:24.660Z,85.90
2018-06-19T06:48:53.210Z,84.74
2018-06-19T06:51:21.846Z,85.49
2018-06-19T06:53:51.926Z,85.38
2018-06-19T06:56:20.446Z,85.96
2018-06-19T06:58:49.565Z,85.01
2018-06-19T07:01:18.133Z,84.51
2018-06-19T07:03:46.655Z,84.26
2018-06-19T07:06:15.187Z,84.55
2018-06-19T07:08:43.863Z,84.93
2018-06-19T07:11:12.386Z,85.09
2018-06-19T07:13:40.927Z,85.43
2018-06-19T07:16:09.491Z,85.95
2018-06-19T07:18:38.102Z,86.95
2018-06-19T07:21:06.946Z,87.05
2018-06-19T07:23:35.469Z,86.94
2018-06-19T07:26:04.039Z,86.92
2018-06-19T07:28:32.564Z,86.08
2018-06-19T07:31:01.131Z,86.44
2018-06-19T07:33:29.658Z,84.12
2018-06-19T07:35:59.077Z,84.62
2018-06-19T07:38:27.749Z,84.32
2018-06-19T07:40:56.214Z,84.49
2018-06-19T07:43:24.771Z,83.87
2018-06-19T07:45:53.300Z,83.62
2018-06-19T07:48:21.819Z,83.15
2018-06-19T07:50:51.212Z,82.96
2018-06-19T07:53:20.456Z,82.34
2018-06-19T07:55:49.394Z,82.45
2018-06-19T07:58:17.915Z,84.04
2018-06-19T08:00:46.491Z,83.87
2018-06-19T08:03:15.064Z,83.76
2018-06-19T08:05:43.604Z,84.65
2018-06-19T08:08:12.508Z,84.68
2018-06-19T08:10:41.535Z,84.75
2018-06-19T08:13:10.067Z,85.63
2018-06-19T08:15:38.628Z,86.88
2018-06-19T08:18:08.776Z,87.27
2018-06-19T08:20:37.283Z,87.81
2018-06-19T08:23:05.880Z,88.97
2018-06-19T08:25:34.394Z,88.39
2018-06-19T08:28:02.971Z,89.13
2018-06-19T08:30:31.478Z,89.61
2018-06-19T08:33:00.017Z,90.14
2018-06-19T08:35:28.591Z,90.45
2018-06-19T08:37:57.099Z,90.52
2018-06-19T08:40:25.631Z,90.41
2018-06-19T08:42:54.159Z,90.14
2018-06-19T08:45:22.710Z,89.85
2018-06-19T08:47:51.228Z,91.25
2018-06-19T08:50:20.023Z,91.52
2018-06-19T08:52:48.563Z,90.54
2018-06-19T08:55:18.117Z,90.17
2018-06-19T08:57:46.670Z,90.79
2018-06-19T09:00:15.349Z,90.73
2018-06-19T09:02:43.880Z,89.64
2018-06-19T09:05:12.437Z,89.56
2018-06-19T09:07:40.946Z,90.48
2018-06-19T09:10:09.942Z,90.03
2018-06-19T09:12:38.478Z,89.04
2018-06-19T09:15:07.094Z,89.14
2018-06-19T09:17:35.687Z,87.05
2018-06-19T09:20:04.284Z,88.18
2018-06-19T09:22:32.843Z,87.72
2018-06-19T09:25:01.363Z,88.44
2018-06-19T09:27:29.875Z,88.38
2018-06-19T09:29:58.381Z,88.67
2018-06-19T09:32:26.915Z,88.67
2018-06-19T09:34:55.416Z,88.44
2018-06-19T09:37:24.346Z,88.91
2018-06-19T09:39:53.715Z,88.92
2018-06-19T09:42:22.238Z,88.07
2018-06-19T09:44:50.816Z,86.91
2018-06-19T09:47:19.338Z,87.23
2018-06-19T09:49:47.911Z,87.61
2018-06-19T09:52:16.806Z,87.25
2018-06-19T09:54:45.435Z,88.67
2018-06-19T09:57:13.930Z,87.58
2018-06-19T09:59:42.706Z,87.86
2018-06-19T10:02:11.519Z,87.16
2018-06-19T10:04:40.055Z,87.64
2018-06-19T10:07:08.726Z,88.53
2018-06-19T10:09:37.359Z,88.82
2018-06-19T10:12:05.986Z,87.69
2018-06-19T10:14:34.594Z,86.86
2018-06-19T10:17:03.126Z,85.62
2018-06-19T10:19:32.736Z,85.42
2018-06-19T10:22:01.226Z,84.41
2018-06-19T10:24:29.780Z,84.46
2018-06-19T10:26:58.672Z,83.37
2018-06-19T10:29:27.195Z,82.95
2018-06-19T10:31:55.846Z,79.94
2018-06-19T10:34:24.542Z,81.48
2018-06-19T10:36:53.063Z,84.54
2018-06-19T10:39:21.572Z,83.24
2018-06-19T10:41:50.451Z,81.23
2018-06-19T10:44:18.998Z,82.66
2018-06-19T10:46:47.891Z,86.17
2018-06-19T10:49:16.411Z,87.02
2018-06-19T10:51:45.382Z,87.35
2018-06-19T10:54:13.915Z,86.14
2018-06-19T10:56:42.452Z,84.98
2018-06-19T10:59:10.987Z,86.14
2018-06-19T11:01:39.502Z,87.62
2018-06-19T11:04:08.429Z,88.47
2018-06-19T11:06:36.984Z,88.42
2018-06-19T11:09:08.418Z,87.66
2018-06-19T11:11:37.043Z,87.90
2018-06-19T11:14:05.667Z,85.08
2018-06-19T11:16:34.167Z,85.94
2018-06-19T11:19:02.749Z,84.00
2018-06-19T11:21:31.299Z,85.72
2018-06-19T11:23:59.861Z,85.95
2018-06-19T11:26:28.991Z,87.02
2018-06-19T11:28:57.512Z,87.61
2018-06-19T11:31:26.018Z,89.09
2018-06-19T11:33:54.993Z,88.27
2018-06-19T11:36:23.493Z,88.40
2018-06-19T11:38:51.998Z,89.22
2018-06-19T11:41:20.514Z,88.82
2018-06-19T11:43:49.073Z,88.19
2018-06-19T11:46:17.596Z,88.30
2018-06-19T11:48:46.165Z,88.76
2018-06-19T11:51:14.726Z,88.88
2018-06-19T11:53:43.274Z,88.58
2018-06-19T11:56:11.829Z,88.53
2018-06-19T11:58:40.452Z,88.76
2018-06-19T12:01:09.083Z,89.20
2018-06-19T12:03:37.658Z,88.07
2018-06-19T12:06:06.175Z,87.72
2018-06-19T12:08:34.705Z,86.53
2018-06-19T12:11:03.245Z,87.63
2018-06-19T12:13:31.733Z,85.05
2018-06-19T12:16:00.249Z,85.41
2018-06-19T12:18:28.884Z,85.14
2018-06-19T12:20:57.439Z,85.90
2018-06-19T12:23:26.233Z,86.07
2018-06-19T12:25:54.757Z,83.67
2018-06-19T12:28:23.270Z,84.16
2018-06-19T12:30:51.798Z,84.82
2018-06-19T12:33:20.295Z,84.98
2018-06-19T12:35:48.825Z,84.29
2018-06-19T12:38:17.320Z,84.87
2018-06-19T12:40:46.014Z,84.64
2018-06-19T12:43:14.538Z,82.29
2018-06-19T12:45:43.062Z,78.71
2018-06-19T12:48:11.647Z,81.97
2018-06-19T12:51:54.643Z,83.10
2018-06-19T12:54:31.830Z,80.78
2018-06-19T12:57:00.501Z,82.42
2018-06-19T12:59:29.010Z,81.97
2018-06-19T13:01:57.582Z,80.15
2018-06-19T13:04:37.178Z,80.73
2018-06-19T13:07:05.722Z,78.59
2018-06-19T13:09:34.272Z,79.27
2018-06-19T13:12:02.856Z,78.02
2018-06-19T13:14:45.022Z,77.10
2018-06-19T13:17:24.745Z,78.33
2018-06-19T13:20:04.611Z,74.21
2018-06-19T13:22:33.142Z,76.62
2018-06-19T13:25:01.686Z,75.09
2018-06-19T13:27:31.214Z,73.56
2018-06-19T13:30:11.935Z,73.86
2018-06-19T13:32:40.510Z,73.33
2018-06-19T13:35:09.066Z,73.14
2018-06-19T13:37:37.591Z,74.13
2018-06-19T13:41:19.071Z,73.39
2018-06-19T13:44:00.219Z,74.11
2018-06-19T13:46:28.734Z,74.39
2018-06-19T13:48:57.289Z,74.76
2018-06-19T13:51:25.838Z,73.85
2018-06-19T13:53:54.726Z,74.39
2018-06-19T13:57:35.073Z,71.16
2018-06-19T14:00:04.903Z,71.70
2018-06-19T14:02:34.393Z,72.29
2018-06-19T14:05:04.445Z,73.00
2018-06-19T14:07:37.686Z,72.58
2018-06-19T14:10:21.652Z,71.19
2018-06-19T14:13:04.983Z,72.02
2018-06-19T14:15:36.546Z,70.30
2018-06-19T14:18:05.651Z,70.16
2018-06-19T14:20:34.398Z,70.95
2018-06-19T14:23:02.919Z,70.93
2018-06-19T14:25:31.595Z,70.65
2018-06-19T14:28:00.106Z,71.26
2018-06-19T14:30:28.618Z,71.16
2018-06-19T14:32:57.197Z,72.26
2018-06-19T14:35:25.677Z,71.72
2018-06-19T14:37:54.256Z,72.16
2018-06-19T14:40:22.846Z,70.92
2018-06-19T14:42:51.733Z,70.28
2018-06-19T14:45:20.311Z,69.50
2018-06-19T14:47:48.906Z,69.50
2018-06-19T14:50:17.422Z,70.80
2018-06-19T14:52:45.946Z,67.17
2018-06-19T14:55:14.434Z,67.70
2018-06-19T14:57:42.979Z,68.46
2018-06-19T15:00:12.378Z,70.07
2018-06-19T15:02:41.104Z,68.04
2018-06-19T15:05:09.666Z,67.33
2018-06-19T15:07:57.710Z,66.78
2018-06-19T15:10:26.350Z,69.07
2018-06-19T15:12:54.839Z,68.06
2018-06-19T15:15:23.337Z,69.53
2018-06-19T15:17:52.079Z,69.43
2018-06-19T15:20:20.605Z,68.21
2018-06-19T15:22:49.098Z,69.23
2018-06-19T15:25:17.605Z,67.62
2018-06-19T15:27:46.141Z,69.18
2018-06-19T15:30:14.682Z,68.80
2018-06-19T15:32:43.174Z,69.18
2018-06-19T15:35:11.752Z,69.03
2018-06-19T15:37:40.311Z,68.75
2018-06-19T15:40:08.866Z,68.66
2018-06-19T15:42:37.380Z,68.67
2018-06-19T15:45:05.947Z,68.64
2018-06-19T15:47:34.582Z,69.14
2018-06-19T15:50:03.144Z,68.37
2018-06-19T15:52:31.641Z,69.38
2018-06-19T15:55:00.332Z,70.03
2018-06-19T15:57:28.842Z,69.35
2018-06-19T15:59:57.375Z,69.07
2018-06-19T16:02:25.939Z,69.51
2018-06-19T16:04:54.429Z,70.67
2018-06-19T16:07:22.931Z,69.54
2018-06-19T16:09:51.507Z,69.96
2018-06-19T16:12:20.942Z,71.45
2018-06-19T16:14:49.451Z,71.40
2018-06-19T16:17:17.958Z,71.10
2018-06-19T16:19:46.798Z,71.76
2018-06-19T16:22:15.352Z,71.72
2018-06-19T16:24:44.700Z,71.69
2018-06-19T16:27:13.582Z,72.19
2018-06-19T16:29:42.242Z,72.14
2018-06-19T16:32:11.028Z,71.76
2018-06-19T16:34:39.714Z,71.80
2018-06-19T16:37:08.190Z,71.44
2018-06-19T16:39:36.809Z,71.10
2018-06-19T16:42:05.317Z,71.60
2018-06-19T16:44:33.831Z,73.26
2018-06-19T16:47:02.450Z,72.80
2018-06-19T16:49:30.983Z,72.28
2018-06-19T16:51:59.469Z,72.38
2018-06-19T16:54:28.342Z,72.45
2018-06-19T16:56:56.887Z,72.61
2018-06-19T16:59:27.049Z,73.13
2018-06-19T17:01:55.567Z,73.28
2018-06-19T17:04:25.084Z,73.43
2018-06-19T17:06:53.619Z,73.25
2018-06-19T17:09:22.175Z,73.59
2018-06-19T17:11:50.655Z,72.59
2018-06-19T17:14:19.153Z,73.50
2018-06-19T17:16:48.554Z,72.94
2018-06-19T17:19:17.265Z,73.50
2018-06-19T17:21:46.755Z,73.75
2018-06-19T17:24:15.270Z,73.65
2018-06-19T17:26:43.785Z,73.28
2018-06-19T17:29:12.278Z,73.92
2018-06-19T17:31:40.803Z,74.53
2018-06-19T17:34:09.317Z,74.18
2018-06-19T17:36:37.854Z,74.19
2018-06-19T17:39:09.130Z,74.78
2018-06-19T17:41:38.087Z,74.37
2018-06-19T17:44:06.825Z,74.89
2018-06-19T17:46:35.324Z,74.50
2018-06-19T17:49:03.810Z,74.45
2018-06-19T17:51:32.676Z,75.39
2018-06-19T17:54:01.187Z,74.80
2018-06-19T17:56:29.688Z,74.58
2018-06-19T17:58:58.205Z,75.03
2018-06-19T18:01:26.698Z,75.41
2018-06-19T18:03:55.242Z,75.09
2018-06-19T18:06:23.742Z,75.17
2018-06-19T18:08:52.918Z,75.43
2018-06-19T18:11:21.552Z,76.08
2018-06-19T18:13:50.101Z,75.79
2018-06-19T18:16:18.656Z,76.21
2018-06-19T18:18:47.273Z,76.11
2018-06-19T18:21:15.755Z,75.80
2018-06-19T18:23:44.258Z,75.54
2018-06-19T18:26:12.859Z,75.91
2018-06-19T18:28:41.346Z,76.10
2018-06-19T18:31:09.874Z,76.26
2018-06-19T18:33:38.606Z,75.92
2018-06-19T18:36:07.485Z,76.31
2018-06-19T18:38:36.073Z,76.15
2018-06-19T18:41:04.652Z,75.82
2018-06-19T18:43:33.141Z,76.23
2018-06-19T18:46:02.045Z,76.07
2018-06-19T18:48:30.509Z,75.85
2018-06-19T18:50:59.405Z,75.95
2018-06-19T18:53:27.986Z,75.87
2018-06-19T18:55:57.105Z,75.84
2018-06-19T18:58:26.038Z,75.48
2018-06-19T19:00:54.529Z,76.18
2018-06-19T19:03:27.959Z,75.69
2018-06-19T19:05:56.489Z,75.45
2018-06-19T19:08:25.836Z,75.24
2018-06-19T19:10:55.797Z,76.00
2018-06-19T19:13:25.522Z,75.89
2018-06-19T19:15:59.276Z,76.19
2018-06-19T19:18:33.042Z,76.38
2018-06-19T19:21:02.021Z,77.03
2018-06-19T19:23:31.057Z,76.93
2018-06-19T19:25:59.661Z,76.99
2018-06-19T19:28:33.449Z,77.02
2018-06-19T19:31:02.146Z,77.52
2018-06-19T19:33:30.749Z,77.90
2018-06-19T19:35:59.221Z,77.54
2018-06-19T19:38:33.085Z,77.95
2018-06-19T19:41:01.594Z,77.86
2018-06-19T19:43:30.226Z,77.87
2018-06-19T19:45:58.708Z,78.11
2018-06-19T19:48:32.432Z,78.33
2018-06-19T19:51:00.901Z,78.27
2018-06-19T19:53:29.431Z,78.88
2018-06-19T19:56:03.440Z,79.38
2018-06-19T19:58:37.192Z,78.95
2018-06-19T20:01:05.835Z,77.88
2018-06-19T20:03:34.328Z,77.76
2018-06-19T20:06:02.857Z,77.87
2018-06-19T20:08:31.435Z,79.10
2018-06-19T20:10:59.962Z,79.59
2018-06-19T20:13:28.468Z,79.81
2018-06-19T20:15:56.934Z,79.89
2018-06-19T20:18:25.430Z,79.69
2018-06-19T20:20:53.906Z,80.25
2018-06-19T20:23:22.421Z,80.33
2018-06-19T20:25:50.909Z,80.09
2018-06-19T20:28:19.401Z,79.94
2018-06-19T20:30:47.914Z,79.55
2018-06-19T20:33:16.521Z,79.30
2018-06-19T20:35:45.013Z,79.18
2018-06-19T20:38:13.469Z,79.83
2018-06-19T20:40:42.037Z,79.62
2018-06-19T20:43:10.595Z,79.63
2018-06-19T20:45:39.082Z,80.61
2018-06-19T20:48:07.628Z,80.41
2018-06-19T20:50:36.097Z,79.72
2018-06-19T20:53:04.656Z,79.94
2018-06-19T20:55:33.517Z,80.08
2018-06-19T20:58:02.010Z,80.54
2018-06-19T21:00:30.477Z,80.18
2018-06-19T21:02:59.205Z,80.29
2018-06-19T21:05:27.780Z,80.96
2018-06-19T21:07:56.383Z,81.08
2018-06-19T21:10:25.001Z,81.31
2018-06-19T21:12:53.642Z,81.21
2018-06-19T21:15:22.334Z,80.84
2018-06-19T21:17:50.942Z,80.94
2018-06-19T21:20:19.539Z,81.73
2018-06-19T21:22:48.105Z,81.18
2018-06-19T21:25:16.717Z,81.48
2018-06-19T21:27:45.385Z,81.70
2018-06-19T21:30:13.941Z,81.53
2018-06-19T21:32:42.516Z,81.82
2018-06-19T21:35:11.124Z,81.74
2018-06-19T21:37:39.735Z,81.72
2018-06-19T21:40:08.320Z,81.37
2018-06-19T21:42:36.926Z,81.36
2018-06-19T21:45:05.511Z,81.22
2018-06-19T21:47:34.088Z,81.50
2018-06-19T21:50:02.738Z,81.61
2018-06-19T21:52:31.342Z,81.54
2018-06-19T21:55:00.057Z,81.67
2018-06-19T21:57:28.612Z,81.50
2018-06-19T21:59:57.178Z,81.40
2018-06-19T22:02:30.921Z,81.75
2018-06-19T22:04:59.681Z,81.76
2018-06-19T22:07:28.301Z,81.91
2018-06-19T22:09:56.854Z,81.58
2018-06-19T22:12:25.447Z,81.84
2018-06-19T22:14:54.099Z,82.08
2018-06-19T22:17:22.699Z,82.53
2018-06-19T22:19:51.286Z,81.99
2018-06-19T22:22:20.135Z,81.64
2018-06-19T22:24:50.649Z,81.57
2018-06-19T22:27:19.317Z,81.79
2018-06-19T22:29:47.872Z,81.58
2018-06-19T22:32:16.483Z,81.92
2018-06-19T22:34:45.097Z,81.87
2018-06-19T22:37:14.337Z,81.67
2018-06-19T22:39:42.933Z,81.50
2018-06-19T22:42:11.513Z,81.54
2018-06-19T22:44:40.146Z,81.82
2018-06-19T22:47:08.721Z,81.86
2018-06-19T22:49:37.373Z,82.39
2018-06-19T22:52:05.962Z,82.78
2018-06-19T22:54:34.505Z,82.81
2018-06-19T22:57:03.166Z,83.21
2018-06-19T22:59:31.732Z,83.06
2018-06-19T23:02:00.307Z,82.76
2018-06-19T23:04:28.884Z,82.37
2018-06-19T23:06:57.441Z,81.65
2018-06-19T23:09:26.114Z,81.97
2018-06-19T23:11:54.682Z,82.67
2018-06-19T23:14:23.237Z,82.52
2018-06-19T23:16:51.878Z,82.15
2018-06-19T23:19:20.450Z,82.50
2018-06-19T23:21:49.005Z,82.47
2018-06-19T23:24:17.651Z,82.39
2018-06-19T23:26:46.345Z,82.67
2018-06-19T23:29:14.926Z,82.20
2018-06-19T23:31:43.537Z,82.25
2018-06-19T23:34:12.149Z,82.21
2018-06-19T23:36:40.729Z,81.98
2018-06-19T23:39:10.075Z,82.21
2018-06-19T23:41:38.729Z,82.84
2018-06-19T23:44:07.335Z,83.06
2018-06-19T23:46:35.905Z,82.75
2018-06-19T23:49:04.546Z,82.71
2018-06-19T23:51:33.101Z,82.71
2018-06-19T23:54:01.730Z,82.75
2018-06-19T23:56:30.317Z,83.42
2018-06-19T23:58:58.942Z,83.70
